Tiago Costa

Chefscout - Mirassol
29 Okt 2028
Sonntag
Verarbeitung

Persönlichkeit

Anpassungsfähigkeit (1) Ehrgeiz (2) Kontroverse (17) Loyalität (6) Druck (1) Professionalität (19) Fairness (12) Temperament (12)

Profil

Trainerstil Demokratisch
Lizenz Kontinentale Pro
Entschlossenheit 8
Menschenführung 6
Motivation 4
Disziplin 8
Arbeitszufriedenheit
100%
Ermüdung
0%
Rolle Chefscout
Gehalt 41.3K p/W
Vertrag 14.03.2029

Leistung

Verhalten Gut
Trainingseffektivität
36%
Spielerentwicklung
20%
Verletzungsprävention
45%
Taktische Umsetzung
40%

Letzte Ereignisse

Nahm an einer Scouting-Besprechung teil jetzt
Empfahl ein Transferziel jetzt
Empfahl ein Transferziel jetzt
Empfahl ein Transferziel jetzt
Empfahl ein Transferziel jetzt
Empfahl ein Transferziel 7T her
Empfahl ein Transferziel 7T her
Empfahl ein Transferziel 7T her

Aktuell beobachtet

172
Spieler Verein Status Fähigkeit Vertrauen Beobachtet Zuletzt beobachtet Letzte Stimme
Matheus Reis Fluminense Aktiv 108 / 114 72% 1 03.07.2028 Befürworten
Matheus Corrêa Corinthians Aktiv 86 / 91 72% 1 19.06.2028 Befürworten
Mustapha Lawal Shooting Stars Aktiv 112 / 108 40% 1 13.12.2027 -
John Pulskamp Sporting Kansas City Aktiv 115 / 117 40% 1 13.12.2027 -
Moisés Gallo Aragua Aktiv 99 / 97 40% 1 13.12.2027 -
João Dalla Corte Internacional Aktiv 95 / 110 72% 1 07.12.2027 Befürworten
Miqueias Bahia Aktiv 106 / 101 72% 1 12.07.2027 Befürworten
Paulo Iago Sporting CP Aktiv 99 / 105 40% 5 30.05.2027 -
Víctor Guzmán Sporting CP Aktiv 103 / 107 40% 6 28.05.2027 -
Miguel Figueiredo Benfica Aktiv 113 / 110 40% 5 28.05.2027 -
Rafael Camacho Sporting CP Aktiv 92 / 91 40% 7 27.05.2027 -
Caleb Yirenkyi Coventry City Aktiv 128 / 148 40% 5 27.05.2027 -
Riley Owen Stevenage Aktiv 101 / 111 40% 1 27.05.2027 -
Tiago Freitas Benfica Aktiv 109 / 126 40% 8 25.05.2027 -
Eduardo Fernandes Benfica Aktiv 109 / 110 40% 5 24.05.2027 -
Gabriele Bertolini Vicenza Aktiv 104 / 102 40% 2 24.05.2027 -
Lucas Bergvall Tottenham Aktiv 143 / 145 40% 1 24.05.2027 -
Bence Dárdai VfL Wolfsburg Aktiv 129 / 130 40% 1 23.05.2027 -
Leo Castledine Middlesbrough Aktiv 127 / 137 40% 4 21.05.2027 -
Charlie Gray Fleetwood Town Aktiv 89 / 108 40% 1 21.05.2027 -
João Abreu Porto Aktiv 87 / 111 40% 8 18.05.2027 -
Jan Bürger Northampton Town Aktiv 117 / 114 40% 2 18.05.2027 -
Bazoumana Touré Newcastle United Aktiv 139 / 136 40% 2 18.05.2027 -
Lander Astiazarán Real Sociedad Aktiv 111 / 120 40% 3 16.05.2027 -
Calum Agius Crewe Alexandra Aktiv 100 / 100 40% 2 16.05.2027 -
Mattia Rutigliano Pro Vercelli Aktiv 93 / 103 40% 1 16.05.2027 -
Kazunari Kita Real Sociedad Aktiv 104 / 108 40% 1 15.05.2027 -
Samuele di Benedetto Twente Aktiv 120 / 111 40% 3 13.05.2027 -
Leandro Martins Benfica Aktiv 98 / 87 40% 8 12.05.2027 -
Sindre Walle Egeli Udinese Aktiv 123 / 140 40% 5 12.05.2027 -
Gladson Adjei WAFA Aktiv 93 / 75 40% 1 12.05.2027 -
Bernardo Lima Porto Aktiv 93 / 108 40% 4 10.05.2027 -
Paulo Cardoso Sporting CP Aktiv 88 / 109 40% 7 10.05.2027 -
Luke Baartman Ajax Cape Town Aktiv 105 / 123 40% 2 09.05.2027 -
Mpho Khethang FC Diarra Aktiv 74 / 98 40% 1 08.05.2027 -
João Capucho Benfica Aktiv 89 / 99 40% 1 07.05.2027 -
Oscar Schwartau Norwich City Aktiv 123 / 118 40% 3 06.05.2027 -
André Miranda Porto Aktiv 105 / 96 40% 4 02.05.2027 -
Romelle Donovan Brentford Aktiv 123 / 137 40% 3 01.05.2027 -
Asanele Bonani Chippa United Aktiv 88 / 108 40% 1 01.05.2027 -
Mateus Mané Burnley Aktiv 136 / 150 40% 3 30.04.2027 -
Chemsdine Talbi Sunderland Aktiv 145 / 143 40% 1 28.04.2027 -
Ethan Williams Peterborough United Aktiv 106 / 130 40% 5 26.04.2027 -
Naledi Hlongwane Wa All Stars Aktiv 88 / 95 40% 1 26.04.2027 -
Monty Batlhabane Polokwane City Aktiv 87 / 88 40% 5 25.04.2027 -
Martim Cunha Porto Aktiv 102 / 102 40% 4 20.04.2027 -
Othmane Maamma Watford Aktiv 116 / 137 40% 9 18.04.2027 -
Daniel Awuni Aduana Stars Aktiv 84 / 107 40% 3 18.04.2027 -
Mathys Tel Tottenham Aktiv 144 / 154 40% 1 16.04.2027 -
Zack Nelson Ternana Aktiv 105 / 112 40% 3 14.04.2027 -
Ezra Mayers West Ham United Aktiv 107 / 136 40% 1 10.04.2027 -
Cheveyo Tsawa Club Brugge Aktiv 110 / 130 40% 1 09.04.2027 -
Afriyie Sulemana WAFA Aktiv 78 / 96 40% 1 09.04.2027 -
Mohamadou Kanté Crawley Town Aktiv 117 / 127 40% 6 06.04.2027 -
Iseppe Nacional Aktiv 100 / 124 40% 5 27.03.2027 -
Gonçalo Moreira Benfica Aktiv 117 / 121 40% 1 27.03.2027 -
Rafael Lobato Rio Ave Aktiv 105 / 107 40% 2 25.03.2027 -
Stevan Manuel Benfica Aktiv 103 / 117 40% 2 20.03.2027 -
Araphat Mohammed Ashanti Gold Aktiv 114 / 117 40% 1 20.03.2027 -
Lovro Zvonarek Estrela da Amadora Aktiv 129 / 124 40% 4 18.03.2027 -
Tibe De Vlieger KAA Gent Aktiv 111 / 106 40% 1 10.03.2027 -
Markus Jensen Nacional Aktiv 108 / 105 40% 2 09.03.2027 -
Nana Nuhu WAFA Aktiv 80 / 87 40% 2 08.03.2027 -
Gianluca Prestianni Benfica Aktiv 126 / 149 40% 3 08.03.2027 -
James Dornelly Peterborough United Aktiv 97 / 121 40% 1 04.03.2027 -
Olívio Tomé Benfica Aktiv 108 / 123 40% 2 28.02.2027 -
Veljko Radosavljević Cukaricki Aktiv 96 / 106 40% 1 20.02.2027 -
William Gomes Porto Aktiv 148 / 151 40% 1 17.02.2027 -
Gomolemo Kekana Maritzburg United Aktiv 93 / 121 40% 1 16.02.2027 -
Vasco Santos Oliveirense Aktiv 93 / 82 40% 1 06.02.2027 -
Rocco Vata Watford Aktiv 116 / 116 40% 1 03.02.2027 -
Fredi Bahia Aktiv 106 / 105 72% 1 21.12.2026 Befürworten
Tyrese Campbell Sheffield United Aktiv 138 / 114 40% 3 28.11.2026 -
Mika Lusitânia Lourosa Aktiv 101 / 96 40% 3 26.11.2026 -
Mohammed Bouldini Académico de Viseu Aktiv 129 / 130 40% 7 26.11.2026 -
Marko Livaja Hajduk Split Aktiv 142 / 143 40% 1 24.11.2026 -
Alfonso Trezza Arouca Aktiv 114 / 110 40% 3 22.11.2026 -
Nico López Platense Aktiv 131 / 129 40% 1 22.11.2026 -
Yassin Fortuné Vizela Aktiv 103 / 106 40% 1 22.11.2026 -
Wilson Isidor Sunderland Aktiv 137 / 136 40% 1 21.11.2026 -
Roberto Fernández Braga Aktiv 143 / 129 40% 6 20.11.2026 -
Tomané Tondela Aktiv 112 / 117 40% 1 20.11.2026 -
Gabriel Silva Braga Aktiv 129 / 136 40% 3 19.11.2026 -
André Lacximicant Estoril Praia Aktiv 101 / 115 40% 2 19.11.2026 -
Peter Shalulile Mamelodi Sundowns Aktiv 125 / 135 40% 5 17.11.2026 -
Héctor Hernández Gil Vicente Aktiv 120 / 124 40% 1 14.11.2026 -
Gustavo Silva Vitoria Guimaraes Aktiv 126 / 119 40% 5 13.11.2026 -
Henrique Araújo Casa Pia Aktiv 130 / 110 40% 2 13.11.2026 -
Adrián Martínez Racing Club Aktiv 133 / 136 40% 2 13.11.2026 -
Vinícius Lopes Santa Clara Aktiv 129 / 122 40% 3 12.11.2026 -
Rafa Benfica Aktiv 143 / 146 40% 3 12.11.2026 -
Yanis Begraoui Estoril Praia Aktiv 126 / 137 40% 5 10.11.2026 -
Fran Navarro Braga Aktiv 122 / 134 40% 4 08.11.2026 -
Neymar Santos Aktiv 149 / 151 40% 2 04.11.2026 -
Bongani Khune SuperSport United Aktiv 136 / 133 40% 2 04.11.2026 -
Pablo Fernández Leiria Aktiv 105 / 105 40% 3 03.11.2026 -
Pedro Bravo FC Midtjylland Aktiv 110 / 124 40% 1 03.11.2026 -
Kyle Wootton Stockport County Aktiv 127 / 110 40% 1 01.11.2026 -
Claudio Spinelli Vasco da Gama Aktiv 121 / 129 40% 2 29.10.2026 -
Juan Muñoz Leiria Aktiv 117 / 113 40% 2 29.10.2026 -
Anthony Lozano Santos Laguna Aktiv 128 / 132 40% 1 28.10.2026 -
Heung-Min Son Los Angeles Football Club Aktiv 143 / 156 40% 3 27.10.2026 -
Sorriso Famalicao Aktiv 125 / 116 40% 6 26.10.2026 -
Giorgos Koutsias Famalicao Aktiv 113 / 129 40% 1 26.10.2026 -
Mourad Tijuana Aktiv 120 / 123 40% 1 25.10.2026 -
Ismael Díaz Leon Aktiv 138 / 115 40% 1 24.10.2026 -
Zian Flemming Ipswich Town Aktiv 130 / 133 40% 1 24.10.2026 -
Dawda Camara Alverca Aktiv 111 / 116 40% 2 23.10.2026 -
André Clovis Académico de Viseu Aktiv 110 / 131 40% 2 20.10.2026 -
Nicolás Ibáñez Cruz Azul Aktiv 137 / 124 40% 4 20.10.2026 -
Victor Froholdt Porto Aktiv 148 / 160 40% 1 18.10.2026 -
Ricardo Horta Braga Aktiv 159 / 161 40% 2 16.10.2026 -
Morgan Guilavogui Real Salt Lake Aktiv 118 / 123 40% 1 12.10.2026 -
Tomás Molina Argentinos Juniors Aktiv 123 / 123 40% 1 11.10.2026 -
Luis Muriel Junior Aktiv 124 / 133 40% 1 08.10.2026 -
Pau Víctor Braga Aktiv 141 / 149 40% 4 06.10.2026 -
Arthur Cabral Botafogo Aktiv 135 / 134 40% 1 05.10.2026 -
Mathias De Amorim Famalicao Aktiv 124 / 126 40% 1 05.10.2026 -
Pedro Bondo Famalicao Aktiv 104 / 127 40% 1 05.10.2026 -
Tamble Monteiro Rio Ave Aktiv 124 / 131 40% 1 03.10.2026 -
Henry Martín Club America Aktiv 130 / 128 40% 1 03.10.2026 -
Tadeo Allende Inter Miami CF Aktiv 113 / 116 40% 2 01.10.2026 -
Guido Carrillo Aktiv 135 / 136 40% 1 27.09.2026 -
Dylan Nandín Arouca Aktiv 112 / 111 40% 3 24.09.2026 -
Andrey Estupiñán Millonarios Aktiv 119 / 123 40% 1 20.09.2026 -
João Klauss LA Galaxy Aktiv 119 / 113 40% 1 17.09.2026 -
Nélson Oliveira Vitoria Guimaraes Aktiv 114 / 112 40% 1 12.09.2026 -
Rui Pedro Felgueiras Aktiv 101 / 100 40% 1 11.09.2026 -
Carles Gil New England Revolution Aktiv 138 / 141 40% 1 07.09.2026 -
Jhonatan Candia Barracas Central Aktiv 131 / 132 40% 1 06.09.2026 -
Antony Alonso Deportivo Riestra Aktiv 129 / 124 40% 1 06.09.2026 -
Zé Carlos Gil Vicente Aktiv 117 / 112 40% 1 29.08.2026 -
Jérémy Livolant Casa Pia Aktiv 128 / 110 40% 1 26.08.2026 -
Lee Hyun-Ju Arouca Aktiv 112 / 131 40% 1 26.08.2026 -
Javier Correa Colo-Colo Aktiv 122 / 124 40% 1 25.08.2026 -
Talles Magno New York City Aktiv 139 / 118 40% 1 25.08.2026 -
Luciano Juba Bahia Aktiv 141 / 128 40% 1 25.08.2026 -
Ibrahim Sangaré Nottingham Forest Aktiv 154 / 153 40% 1 24.08.2026 -
Taichi Fukui Arouca Aktiv 124 / 140 40% 1 22.08.2026 -
Anthony Carter Vizela Aktiv 117 / 103 40% 1 22.08.2026 -
Valery Académico de Viseu Aktiv 115 / 128 40% 2 20.08.2026 -
Víctor Gómez Braga Aktiv 128 / 142 40% 3 20.08.2026 -
Matheus Dias Nacional Aktiv 111 / 123 40% 1 20.08.2026 -
Marios Vrousai Rio Ave Aktiv 122 / 129 40% 1 19.08.2026 -
Gonçalo Nogueira Vitoria Guimaraes Aktiv 112 / 127 40% 1 19.08.2026 -
Ignacio de Arruabarrena Arouca Aktiv 116 / 113 40% 1 17.08.2026 -
Bernardo Fontes Braga Aktiv 136 / 117 40% 1 17.08.2026 -
Matheus Mendes Alverca Aktiv 122 / 121 40% 1 17.08.2026 -
Gérson Cruzeiro Aktiv 136 / 139 40% 1 17.08.2026 -
Jair Silva Leiria Aktiv 103 / 121 40% 1 16.08.2026 -
Dinis Pinto Moreirense Aktiv 124 / 125 40% 1 16.08.2026 -
Figueiredo Alverca Aktiv 125 / 115 40% 2 14.08.2026 -
Santi García Gil Vicente Aktiv 127 / 133 40% 1 14.08.2026 -
Antonio Gomis Vizela Aktiv 107 / 124 40% 1 13.08.2026 -
Alejandro Zendejas Club America Aktiv 129 / 132 40% 1 13.08.2026 -
Abdu Conté Casa Pia Aktiv 127 / 115 40% 1 13.08.2026 -
Caio Alexandre Bahia Aktiv 142 / 137 40% 1 12.08.2026 -
Anthony Patterson Wrexham Aktiv 131 / 124 40% 1 10.08.2026 -
Dudu Estrela da Amadora Aktiv 104 / 109 40% 1 10.08.2026 -
Christian Joel Sánchez Leiria Aktiv 100 / 96 40% 1 10.08.2026 -
Paulo Moreira Nacional Aktiv 118 / 136 40% 1 10.08.2026 -
João Carvalho Estoril Praia Aktiv 127 / 127 40% 1 10.08.2026 -
Rafik Guitane Estoril Praia Aktiv 135 / 132 40% 1 09.08.2026 -
Alberto Costa Porto Aktiv 143 / 153 40% 2 07.08.2026 -
Mateja Stjepanović Moreirense Aktiv 128 / 139 40% 1 07.08.2026 -
Tony Strata Vitoria Guimaraes Aktiv 111 / 128 40% 1 05.08.2026 -
Tomás Araújo Benfica Aktiv 152 / 137 40% 1 05.08.2026 -
Lawrence Ofori Casa Pia Aktiv 111 / 114 40% 1 05.08.2026 -
Liziero Nacional Aktiv 135 / 114 40% 1 04.08.2026 -
Gustaf Lagerbielke Braga Aktiv 142 / 122 40% 1 03.08.2026 -
João Mendes Vitoria Guimaraes Aktiv 125 / 126 40% 1 03.08.2026 -
Pedro Amaral Rio Ave Aktiv 124 / 102 40% 1 02.08.2026 -